sensor_id;sensor_type;location;lat;lon;timestamp;temperature;humidity
78463;SHT31;67756;51.982;5.648;2023-04-03T00:01:59;9.3;48.8
78463;SHT31;67756;51.982;5.648;2023-04-03T00:04:29;9.3;48.8
78463;SHT31;67756;51.982;5.648;2023-04-03T00:06:58;9.2;48.4
78463;SHT31;67756;51.982;5.648;2023-04-03T00:09:30;9.2;49.0
78463;SHT31;67756;51.982;5.648;2023-04-03T00:12:00;9.2;48.6
78463;SHT31;67756;51.982;5.648;2023-04-03T00:14:29;9.1;48.7
78463;SHT31;67756;51.982;5.648;2023-04-03T00:16:59;9.1;48.7
78463;SHT31;67756;51.982;5.648;2023-04-03T00:19:28;9.0;49.0
78463;SHT31;67756;51.982;5.648;2023-04-03T00:21:58;9.0;49.3
78463;SHT31;67756;51.982;5.648;2023-04-03T00:24:28;9.0;49.6
78463;SHT31;67756;51.982;5.648;2023-04-03T00:26:57;8.9;48.8
78463;SHT31;67756;51.982;5.648;2023-04-03T00:29:27;8.9;49.2
78463;SHT31;67756;51.982;5.648;2023-04-03T00:31:56;8.9;49.1
78463;SHT31;67756;51.982;5.648;2023-04-03T00:34:26;8.8;50.1
78463;SHT31;67756;51.982;5.648;2023-04-03T00:36:57;8.8;49.4
78463;SHT31;67756;51.982;5.648;2023-04-03T00:39:27;8.8;49.3
78463;SHT31;67756;51.982;5.648;2023-04-03T00:41:57;8.7;49.2
78463;SHT31;67756;51.982;5.648;2023-04-03T00:45:28;8.7;49.6
78463;SHT31;67756;51.982;5.648;2023-04-03T00:48:00;8.7;49.3
78463;SHT31;67756;51.982;5.648;2023-04-03T00:50:30;8.6;49.5
78463;SHT31;67756;51.982;5.648;2023-04-03T00:53:02;8.6;49.6
78463;SHT31;67756;51.982;5.648;2023-04-03T00:55:33;8.6;49.6
78463;SHT31;67756;51.982;5.648;2023-04-03T00:58:05;8.5;49.8
78463;SHT31;67756;51.982;5.648;2023-04-03T01:00:38;8.5;50.0
78463;SHT31;67756;51.982;5.648;2023-04-03T01:03:09;8.5;50.4
78463;SHT31;67756;51.982;5.648;2023-04-03T01:05:40;8.4;49.8
78463;SHT31;67756;51.982;5.648;2023-04-03T01:08:10;8.4;49.9
78463;SHT31;67756;51.982;5.648;2023-04-03T01:10:40;8.4;50.1
78463;SHT31;67756;51.982;5.648;2023-04-03T01:13:22;8.4;50.0
78463;SHT31;67756;51.982;5.648;2023-04-03T01:15:52;8.3;50.2
78463;SHT31;67756;51.982;5.648;2023-04-03T01:18:24;8.3;50.6
78463;SHT31;67756;51.982;5.648;2023-04-03T01:22:24;8.3;50.7
78463;SHT31;67756;51.982;5.648;2023-04-03T01:24:56;8.2;50.9
78463;SHT31;67756;51.982;5.648;2023-04-03T01:27:27;8.2;50.9
78463;SHT31;67756;51.982;5.648;2023-04-03T01:29:57;8.2;51.5
78463;SHT31;67756;51.982;5.648;2023-04-03T01:32:27;8.2;51.1
78463;SHT31;67756;51.982;5.648;2023-04-03T01:34:57;8.1;51.1
78463;SHT31;67756;51.982;5.648;2023-04-03T01:37:27;8.1;51.3
78463;SHT31;67756;51.982;5.648;2023-04-03T01:39:56;8.1;51.3
78463;SHT31;67756;51.982;5.648;2023-04-03T01:42:26;8.1;51.4
78463;SHT31;67756;51.982;5.648;2023-04-03T01:44:55;8.0;51.7
78463;SHT31;67756;51.982;5.648;2023-04-03T01:47:25;8.0;51.1
78463;SHT31;67756;51.982;5.648;2023-04-03T01:49:54;8.0;51.9
78463;SHT31;67756;51.982;5.648;2023-04-03T01:52:24;8.0;51.7
78463;SHT31;67756;51.982;5.648;2023-04-03T01:54:54;7.9;51.9
78463;SHT31;67756;51.982;5.648;2023-04-03T01:57:23;7.9;52.2
78463;SHT31;67756;51.982;5.648;2023-04-03T01:59:53;7.9;51.9
78463;SHT31;67756;51.982;5.648;2023-04-03T02:02:22;7.9;52.3
78463;SHT31;67756;51.982;5.648;2023-04-03T02:04:52;7.9;52.6
78463;SHT31;67756;51.982;5.648;2023-04-03T02:07:22;7.9;52.3
78463;SHT31;67756;51.982;5.648;2023-04-03T02:09:52;7.9;51.9
78463;SHT31;67756;51.982;5.648;2023-04-03T02:12:21;7.8;52.3
78463;SHT31;67756;51.982;5.648;2023-04-03T02:14:51;7.8;52.7
78463;SHT31;67756;51.982;5.648;2023-04-03T02:17:20;7.8;52.6
78463;SHT31;67756;51.982;5.648;2023-04-03T02:19:50;7.8;52.8
78463;SHT31;67756;51.982;5.648;2023-04-03T02:22:20;7.8;52.8
78463;SHT31;67756;51.982;5.648;2023-04-03T02:24:51;7.7;52.7
78463;SHT31;67756;51.982;5.648;2023-04-03T02:27:21;7.7;53.2
78463;SHT31;67756;51.982;5.648;2023-04-03T02:29:50;7.7;53.1
78463;SHT31;67756;51.982;5.648;2023-04-03T02:32:20;7.7;53.3
78463;SHT31;67756;51.982;5.648;2023-04-03T02:34:49;7.7;53.8
78463;SHT31;67756;51.982;5.648;2023-04-03T02:37:19;7.6;53.9
78463;SHT31;67756;51.982;5.648;2023-04-03T02:39:49;7.6;53.6
78463;SHT31;67756;51.982;5.648;2023-04-03T02:42:19;7.6;54.1
78463;SHT31;67756;51.982;5.648;2023-04-03T02:44:49;7.6;53.9
78463;SHT31;67756;51.982;5.648;2023-04-03T02:47:19;7.6;53.8
78463;SHT31;67756;51.982;5.648;2023-04-03T02:49:49;7.5;54.1
78463;SHT31;67756;51.982;5.648;2023-04-03T02:52:21;7.5;54.7
78463;SHT31;67756;51.982;5.648;2023-04-03T02:54:50;7.5;54.5
78463;SHT31;67756;51.982;5.648;2023-04-03T02:57:20;7.5;54.1
78463;SHT31;67756;51.982;5.648;2023-04-03T02:59:50;7.5;54.8
78463;SHT31;67756;51.982;5.648;2023-04-03T03:02:19;7.4;54.2
78463;SHT31;67756;51.982;5.648;2023-04-03T03:04:49;7.4;54.4
78463;SHT31;67756;51.982;5.648;2023-04-03T03:07:18;7.4;54.4
78463;SHT31;67756;51.982;5.648;2023-04-03T03:09:48;7.4;54.5
78463;SHT31;67756;51.982;5.648;2023-04-03T03:12:18;7.4;55.0
78463;SHT31;67756;51.982;5.648;2023-04-03T03:14:49;7.3;54.8
78463;SHT31;67756;51.982;5.648;2023-04-03T03:17:18;7.3;54.8
78463;SHT31;67756;51.982;5.648;2023-04-03T03:19:48;7.3;55.0
78463;SHT31;67756;51.982;5.648;2023-04-03T03:22:19;7.3;55.2
78463;SHT31;67756;51.982;5.648;2023-04-03T03:24:51;7.2;55.3
78463;SHT31;67756;51.982;5.648;2023-04-03T03:27:20;7.2;55.1
78463;SHT31;67756;51.982;5.648;2023-04-03T03:29:51;7.2;55.2
78463;SHT31;67756;51.982;5.648;2023-04-03T03:32:21;7.2;55.3
78463;SHT31;67756;51.982;5.648;2023-04-03T03:34:50;7.2;55.7
78463;SHT31;67756;51.982;5.648;2023-04-03T03:37:20;7.2;55.3
78463;SHT31;67756;51.982;5.648;2023-04-03T03:39:49;7.1;55.4
78463;SHT31;67756;51.982;5.648;2023-04-03T03:42:19;7.1;55.4
78463;SHT31;67756;51.982;5.648;2023-04-03T03:44:49;7.1;56.0
78463;SHT31;67756;51.982;5.648;2023-04-03T03:47:21;7.1;56.1
78463;SHT31;67756;51.982;5.648;2023-04-03T03:49:50;7.0;55.8
78463;SHT31;67756;51.982;5.648;2023-04-03T03:52:20;7.0;56.1
78463;SHT31;67756;51.982;5.648;2023-04-03T03:54:49;7.0;56.5
78463;SHT31;67756;51.982;5.648;2023-04-03T03:57:19;7.0;56.3
78463;SHT31;67756;51.982;5.648;2023-04-03T03:59:49;7.0;56.2
78463;SHT31;67756;51.982;5.648;2023-04-03T04:02:20;6.9;56.3
78463;SHT31;67756;51.982;5.648;2023-04-03T04:04:49;6.9;56.6
78463;SHT31;67756;51.982;5.648;2023-04-03T04:07:19;6.9;56.5
78463;SHT31;67756;51.982;5.648;2023-04-03T04:09:49;6.9;56.4
78463;SHT31;67756;51.982;5.648;2023-04-03T04:12:18;6.9;56.8
78463;SHT31;67756;51.982;5.648;2023-04-03T04:14:48;6.9;56.4
78463;SHT31;67756;51.982;5.648;2023-04-03T04:17:17;6.9;56.6
78463;SHT31;67756;51.982;5.648;2023-04-03T04:19:47;6.8;56.5
78463;SHT31;67756;51.982;5.648;2023-04-03T04:22:17;6.8;56.4
78463;SHT31;67756;51.982;5.648;2023-04-03T04:24:46;6.8;56.9
78463;SHT31;67756;51.982;5.648;2023-04-03T04:27:16;6.8;56.8
78463;SHT31;67756;51.982;5.648;2023-04-03T04:29:45;6.7;56.4
78463;SHT31;67756;51.982;5.648;2023-04-03T04:32:15;6.7;56.8
78463;SHT31;67756;51.982;5.648;2023-04-03T04:34:44;6.7;57.1
78463;SHT31;67756;51.982;5.648;2023-04-03T04:37:14;6.7;56.9
78463;SHT31;67756;51.982;5.648;2023-04-03T04:39:43;6.6;57.1
78463;SHT31;67756;51.982;5.648;2023-04-03T04:42:13;6.6;57.2
78463;SHT31;67756;51.982;5.648;2023-04-03T04:44:42;6.6;57.4
78463;SHT31;67756;51.982;5.648;2023-04-03T04:47:12;6.6;57.3
78463;SHT31;67756;51.982;5.648;2023-04-03T04:49:42;6.5;57.6
78463;SHT31;67756;51.982;5.648;2023-04-03T04:52:12;6.5;57.6
78463;SHT31;67756;51.982;5.648;2023-04-03T04:54:41;6.5;57.5
78463;SHT31;67756;51.982;5.648;2023-04-03T04:57:11;6.4;57.4
78463;SHT31;67756;51.982;5.648;2023-04-03T04:59:43;6.4;57.3
78463;SHT31;67756;51.982;5.648;2023-04-03T05:02:12;6.4;57.4
78463;SHT31;67756;51.982;5.648;2023-04-03T05:04:42;6.4;57.5
78463;SHT31;67756;51.982;5.648;2023-04-03T05:07:12;6.3;58.0
78463;SHT31;67756;51.982;5.648;2023-04-03T05:09:42;6.3;58.1
78463;SHT31;67756;51.982;5.648;2023-04-03T05:12:12;6.3;58.2
78463;SHT31;67756;51.982;5.648;2023-04-03T05:14:41;6.3;57.9
78463;SHT31;67756;51.982;5.648;2023-04-03T05:17:12;6.2;58.3
78463;SHT31;67756;51.982;5.648;2023-04-03T05:19:41;6.2;58.0
78463;SHT31;67756;51.982;5.648;2023-04-03T05:22:11;6.2;58.2
78463;SHT31;67756;51.982;5.648;2023-04-03T05:24:41;6.2;58.5
78463;SHT31;67756;51.982;5.648;2023-04-03T05:27:10;6.1;58.5
78463;SHT31;67756;51.982;5.648;2023-04-03T05:29:40;6.1;58.3
78463;SHT31;67756;51.982;5.648;2023-04-03T05:32:12;6.1;58.3
78463;SHT31;67756;51.982;5.648;2023-04-03T05:34:41;6.1;58.4
78463;SHT31;67756;51.982;5.648;2023-04-03T05:37:12;6.1;58.6
78463;SHT31;67756;51.982;5.648;2023-04-03T05:39:41;6.1;58.3
78463;SHT31;67756;51.982;5.648;2023-04-03T05:42:12;6.0;58.5
78463;SHT31;67756;51.982;5.648;2023-04-03T05:44:43;6.0;58.9
78463;SHT31;67756;51.982;5.648;2023-04-03T05:47:14;6.0;58.7
78463;SHT31;67756;51.982;5.648;2023-04-03T05:49:44;6.0;58.6
78463;SHT31;67756;51.982;5.648;2023-04-03T05:52:22;6.0;58.6
78463;SHT31;67756;51.982;5.648;2023-04-03T05:54:52;6.0;59.0
78463;SHT31;67756;51.982;5.648;2023-04-03T05:57:22;6.0;59.3
78463;SHT31;67756;51.982;5.648;2023-04-03T05:59:52;6.0;59.0
78463;SHT31;67756;51.982;5.648;2023-04-03T06:02:23;6.0;59.0
78463;SHT31;67756;51.982;5.648;2023-04-03T06:04:54;6.0;59.3
78463;SHT31;67756;51.982;5.648;2023-04-03T06:07:25;6.1;59.2
78463;SHT31;67756;51.982;5.648;2023-04-03T06:09:57;6.1;59.1
78463;SHT31;67756;51.982;5.648;2023-04-03T06:12:27;6.1;58.8
78463;SHT31;67756;51.982;5.648;2023-04-03T06:14:58;6.1;58.6
78463;SHT31;67756;51.982;5.648;2023-04-03T06:17:28;6.2;58.7
78463;SHT31;67756;51.982;5.648;2023-04-03T06:19:58;6.2;58.3
78463;SHT31;67756;51.982;5.648;2023-04-03T06:22:28;6.2;58.8
78463;SHT31;67756;51.982;5.648;2023-04-03T06:25:00;6.3;58.2
78463;SHT31;67756;51.982;5.648;2023-04-03T06:27:30;6.3;58.2
78463;SHT31;67756;51.982;5.648;2023-04-03T06:30:00;6.3;58.5
78463;SHT31;67756;51.982;5.648;2023-04-03T06:32:29;6.3;57.3
78463;SHT31;67756;51.982;5.648;2023-04-03T06:34:59;6.4;57.9
78463;SHT31;67756;51.982;5.648;2023-04-03T06:37:28;6.4;57.2
78463;SHT31;67756;51.982;5.648;2023-04-03T06:39:59;6.4;56.8
78463;SHT31;67756;51.982;5.648;2023-04-03T06:42:30;6.4;56.5
78463;SHT31;67756;51.982;5.648;2023-04-03T06:45:00;6.5;56.9
78463;SHT31;67756;51.982;5.648;2023-04-03T06:47:30;6.5;56.8
78463;SHT31;67756;51.982;5.648;2023-04-03T06:49:59;6.5;56.9
78463;SHT31;67756;51.982;5.648;2023-04-03T06:52:29;6.5;56.7
78463;SHT31;67756;51.982;5.648;2023-04-03T06:54:59;6.5;56.8
78463;SHT31;67756;51.982;5.648;2023-04-03T06:57:29;6.5;56.3
78463;SHT31;67756;51.982;5.648;2023-04-03T06:59:58;6.6;56.1
78463;SHT31;67756;51.982;5.648;2023-04-03T07:02:28;6.6;56.0
78463;SHT31;67756;51.982;5.648;2023-04-03T07:04:58;6.6;56.3
78463;SHT31;67756;51.982;5.648;2023-04-03T07:07:27;6.7;56.1
78463;SHT31;67756;51.982;5.648;2023-04-03T07:09:57;6.7;56.3
78463;SHT31;67756;51.982;5.648;2023-04-03T07:12:27;6.7;56.2
78463;SHT31;67756;51.982;5.648;2023-04-03T07:14:56;6.8;56.4
78463;SHT31;67756;51.982;5.648;2023-04-03T07:17:26;6.8;55.9
78463;SHT31;67756;51.982;5.648;2023-04-03T07:19:55;6.8;55.3
78463;SHT31;67756;51.982;5.648;2023-04-03T07:22:25;6.9;55.7
78463;SHT31;67756;51.982;5.648;2023-04-03T07:24:55;6.9;55.9
78463;SHT31;67756;51.982;5.648;2023-04-03T07:27:26;7.0;55.1
78463;SHT31;67756;51.982;5.648;2023-04-03T07:29:56;7.0;55.0
78463;SHT31;67756;51.982;5.648;2023-04-03T07:32:25;7.1;55.2
78463;SHT31;67756;51.982;5.648;2023-04-03T07:34:55;7.1;55.0
78463;SHT31;67756;51.982;5.648;2023-04-03T07:37:24;7.2;54.4
78463;SHT31;67756;51.982;5.648;2023-04-03T07:39:55;7.2;53.4
78463;SHT31;67756;51.982;5.648;2023-04-03T07:42:26;7.3;53.7
78463;SHT31;67756;51.982;5.648;2023-04-03T07:44:56;7.3;54.1
78463;SHT31;67756;51.982;5.648;2023-04-03T07:47:26;7.3;52.7
78463;SHT31;67756;51.982;5.648;2023-04-03T07:49:56;7.4;52.4
78463;SHT31;67756;51.982;5.648;2023-04-03T07:52:28;7.4;51.7
78463;SHT31;67756;51.982;5.648;2023-04-03T07:54:57;7.5;51.6
78463;SHT31;67756;51.982;5.648;2023-04-03T07:57:27;7.6;51.8
78463;SHT31;67756;51.982;5.648;2023-04-03T07:59:57;7.6;52.0
78463;SHT31;67756;51.982;5.648;2023-04-03T08:02:29;7.7;51.8
78463;SHT31;67756;51.982;5.648;2023-04-03T08:04:59;7.7;50.3
78463;SHT31;67756;51.982;5.648;2023-04-03T08:07:28;7.8;51.0
78463;SHT31;67756;51.982;5.648;2023-04-03T08:09:58;7.8;51.2
78463;SHT31;67756;51.982;5.648;2023-04-03T08:12:27;7.9;49.3
78463;SHT31;67756;51.982;5.648;2023-04-03T08:15:00;7.9;48.7
78463;SHT31;67756;51.982;5.648;2023-04-03T08:17:29;8.0;49.4
78463;SHT31;67756;51.982;5.648;2023-04-03T08:19:59;8.1;47.0
78463;SHT31;67756;51.982;5.648;2023-04-03T08:22:29;8.1;46.0
78463;SHT31;67756;51.982;5.648;2023-04-03T08:24:59;8.2;46.4
78463;SHT31;67756;51.982;5.648;2023-04-03T08:27:29;8.3;43.7
78463;SHT31;67756;51.982;5.648;2023-04-03T08:30:00;8.3;42.3
78463;SHT31;67756;51.982;5.648;2023-04-03T08:32:30;8.4;42.7
78463;SHT31;67756;51.982;5.648;2023-04-03T08:35:00;8.5;43.5
78463;SHT31;67756;51.982;5.648;2023-04-03T08:37:30;8.5;44.2
78463;SHT31;67756;51.982;5.648;2023-04-03T08:40:00;8.6;42.2
78463;SHT31;67756;51.982;5.648;2023-04-03T08:42:41;8.6;40.5
78463;SHT31;67756;51.982;5.648;2023-04-03T08:45:18;8.7;39.6
78463;SHT31;67756;51.982;5.648;2023-04-03T08:47:55;8.8;40.0
78463;SHT31;67756;51.982;5.648;2023-04-03T08:50:30;8.8;37.7
78463;SHT31;67756;51.982;5.648;2023-04-03T08:53:03;8.9;39.0
78463;SHT31;67756;51.982;5.648;2023-04-03T08:55:39;8.9;39.7
78463;SHT31;67756;51.982;5.648;2023-04-03T08:58:15;9.0;40.2
78463;SHT31;67756;51.982;5.648;2023-04-03T09:00:48;9.1;38.2
78463;SHT31;67756;51.982;5.648;2023-04-03T09:03:20;9.2;37.5
78463;SHT31;67756;51.982;5.648;2023-04-03T09:05:55;9.3;35.0
78463;SHT31;67756;51.982;5.648;2023-04-03T09:08:29;9.3;34.0
78463;SHT31;67756;51.982;5.648;2023-04-03T09:11:09;9.4;34.3
78463;SHT31;67756;51.982;5.648;2023-04-03T09:13:47;9.4;33.2
78463;SHT31;67756;51.982;5.648;2023-04-03T09:16:31;9.5;35.5
78463;SHT31;67756;51.982;5.648;2023-04-03T09:19:14;9.6;34.7
78463;SHT31;67756;51.982;5.648;2023-04-03T09:21:45;9.6;33.7
78463;SHT31;67756;51.982;5.648;2023-04-03T09:24:16;9.7;29.8
78463;SHT31;67756;51.982;5.648;2023-04-03T09:26:55;9.7;29.1
78463;SHT31;67756;51.982;5.648;2023-04-03T09:29:28;9.8;31.3
78463;SHT31;67756;51.982;5.648;2023-04-03T09:32:00;9.8;28.7
78463;SHT31;67756;51.982;5.648;2023-04-03T09:34:32;9.9;31.1
78463;SHT31;67756;51.982;5.648;2023-04-03T09:37:04;9.9;27.0
78463;SHT31;67756;51.982;5.648;2023-04-03T09:39:50;10.0;27.8
78463;SHT31;67756;51.982;5.648;2023-04-03T09:42:22;10.0;29.6
78463;SHT31;67756;51.982;5.648;2023-04-03T09:44:56;10.1;28.8
78463;SHT31;67756;51.982;5.648;2023-04-03T09:47:28;10.1;27.7
78463;SHT31;67756;51.982;5.648;2023-04-03T09:50:20;10.2;27.0
78463;SHT31;67756;51.982;5.648;2023-04-03T09:52:51;10.2;28.1
78463;SHT31;67756;51.982;5.648;2023-04-03T09:55:23;10.3;27.2
78463;SHT31;67756;51.982;5.648;2023-04-03T09:57:55;10.3;27.7
78463;SHT31;67756;51.982;5.648;2023-04-03T10:00:30;10.3;28.8
78463;SHT31;67756;51.982;5.648;2023-04-03T10:03:01;10.4;30.5
78463;SHT31;67756;51.982;5.648;2023-04-03T10:05:35;10.4;28.3
78463;SHT31;67756;51.982;5.648;2023-04-03T10:08:22;10.5;28.5
78463;SHT31;67756;51.982;5.648;2023-04-03T10:11:09;10.6;27.8
78463;SHT31;67756;51.982;5.648;2023-04-03T10:13:52;10.6;27.7
78463;SHT31;67756;51.982;5.648;2023-04-03T10:16:25;10.7;27.6
78463;SHT31;67756;51.982;5.648;2023-04-03T10:19:06;10.8;28.1
78463;SHT31;67756;51.982;5.648;2023-04-03T10:21:49;10.9;28.0
78463;SHT31;67756;51.982;5.648;2023-04-03T10:24:28;11.1;27.3
78463;SHT31;67756;51.982;5.648;2023-04-03T10:27:05;11.3;25.3
78463;SHT31;67756;51.982;5.648;2023-04-03T10:29:42;11.5;28.0
78463;SHT31;67756;51.982;5.648;2023-04-03T10:32:40;11.8;27.6
78463;SHT31;67756;51.982;5.648;2023-04-03T10:35:23;12.3;25.5
78463;SHT31;67756;51.982;5.648;2023-04-03T10:38:03;12.5;26.5
78463;SHT31;67756;51.982;5.648;2023-04-03T10:40:43;12.7;25.9
78463;SHT31;67756;51.982;5.648;2023-04-03T10:43:24;12.9;24.8
78463;SHT31;67756;51.982;5.648;2023-04-03T10:46:03;13.0;25.8
78463;SHT31;67756;51.982;5.648;2023-04-03T10:48:42;13.0;27.0
78463;SHT31;67756;51.982;5.648;2023-04-03T10:51:27;13.1;26.1
78463;SHT31;67756;51.982;5.648;2023-04-03T10:54:04;13.1;26.9
78463;SHT31;67756;51.982;5.648;2023-04-03T10:56:40;13.3;25.7
78463;SHT31;67756;51.982;5.648;2023-04-03T10:59:33;13.4;24.9
78463;SHT31;67756;51.982;5.648;2023-04-03T11:02:07;13.4;27.3
78463;SHT31;67756;51.982;5.648;2023-04-03T11:04:40;13.4;28.3
78463;SHT31;67756;51.982;5.648;2023-04-03T11:07:17;13.4;25.7
78463;SHT31;67756;51.982;5.648;2023-04-03T11:09:53;13.4;24.9
78463;SHT31;67756;51.982;5.648;2023-04-03T11:12:28;13.4;24.9
78463;SHT31;67756;51.982;5.648;2023-04-03T11:15:02;13.4;25.2
78463;SHT31;67756;51.982;5.648;2023-04-03T11:17:37;13.4;26.1
78463;SHT31;67756;51.982;5.648;2023-04-03T11:20:18;13.4;24.9
78463;SHT31;67756;51.982;5.648;2023-04-03T11:22:58;13.5;28.0
78463;SHT31;67756;51.982;5.648;2023-04-03T11:25:33;13.7;27.6
78463;SHT31;67756;51.982;5.648;2023-04-03T11:28:06;14.0;26.9
78463;SHT31;67756;51.982;5.648;2023-04-03T11:30:44;14.4;24.6
78463;SHT31;67756;51.982;5.648;2023-04-03T11:33:32;14.6;24.9
78463;SHT31;67756;51.982;5.648;2023-04-03T11:36:08;14.7;24.5
78463;SHT31;67756;51.982;5.648;2023-04-03T11:38:46;15.0;26.2
78463;SHT31;67756;51.982;5.648;2023-04-03T11:41:27;15.4;25.3
78463;SHT31;67756;51.982;5.648;2023-04-03T11:44:00;15.7;23.3
78463;SHT31;67756;51.982;5.648;2023-04-03T11:46:52;15.9;22.7
78463;SHT31;67756;51.982;5.648;2023-04-03T11:49:57;16.0;24.1
78463;SHT31;67756;51.982;5.648;2023-04-03T11:53:02;16.2;23.9
78463;SHT31;67756;51.982;5.648;2023-04-03T11:55:56;16.5;22.4
78463;SHT31;67756;51.982;5.648;2023-04-03T11:58:27;16.9;20.5
78463;SHT31;67756;51.982;5.648;2023-04-03T12:01:00;17.1;22.3
78463;SHT31;67756;51.982;5.648;2023-04-03T12:04:30;17.2;21.0
78463;SHT31;67756;51.982;5.648;2023-04-03T12:07:15;17.6;20.7
78463;SHT31;67756;51.982;5.648;2023-04-03T12:10:24;17.9;21.4
78463;SHT31;67756;51.982;5.648;2023-04-03T12:12:58;18.2;21.2
78463;SHT31;67756;51.982;5.648;2023-04-03T12:15:51;18.5;22.2
78463;SHT31;67756;51.982;5.648;2023-04-03T12:20:51;18.9;20.5
78463;SHT31;67756;51.982;5.648;2023-04-03T12:23:27;19.5;20.4
78463;SHT31;67756;51.982;5.648;2023-04-03T12:26:03;19.8;21.0
78463;SHT31;67756;51.982;5.648;2023-04-03T12:28:43;20.2;20.8
78463;SHT31;67756;51.982;5.648;2023-04-03T12:31:15;20.4;18.7
78463;SHT31;67756;51.982;5.648;2023-04-03T12:34:06;20.6;18.7
78463;SHT31;67756;51.982;5.648;2023-04-03T12:36:46;20.8;19.6
78463;SHT31;67756;51.982;5.648;2023-04-03T12:41:40;20.9;18.8
78463;SHT31;67756;51.982;5.648;2023-04-03T12:44:35;21.1;18.8
78463;SHT31;67756;51.982;5.648;2023-04-03T12:47:23;21.2;19.8
78463;SHT31;67756;51.982;5.648;2023-04-03T12:49:55;21.4;19.3
78463;SHT31;67756;51.982;5.648;2023-04-03T12:52:37;21.5;18.2
78463;SHT31;67756;51.982;5.648;2023-04-03T12:55:17;21.7;18.3
78463;SHT31;67756;51.982;5.648;2023-04-03T12:57:48;21.7;20.1
78463;SHT31;67756;51.982;5.648;2023-04-03T13:00:27;21.8;18.0
78463;SHT31;67756;51.982;5.648;2023-04-03T13:02:58;22.0;17.6
78463;SHT31;67756;51.982;5.648;2023-04-03T13:05:29;22.1;18.7
78463;SHT31;67756;51.982;5.648;2023-04-03T13:08:03;22.3;19.5
78463;SHT31;67756;51.982;5.648;2023-04-03T13:10:45;22.5;18.1
78463;SHT31;67756;51.982;5.648;2023-04-03T13:13:17;22.7;18.9
78463;SHT31;67756;51.982;5.648;2023-04-03T13:15:48;23.0;16.6
78463;SHT31;67756;51.982;5.648;2023-04-03T13:18:29;23.1;17.4
78463;SHT31;67756;51.982;5.648;2023-04-03T13:21:04;23.2;17.4
78463;SHT31;67756;51.982;5.648;2023-04-03T13:23:37;23.2;17.1
78463;SHT31;67756;51.982;5.648;2023-04-03T13:26:10;23.2;17.0
78463;SHT31;67756;51.982;5.648;2023-04-03T13:28:41;23.3;18.2
78463;SHT31;67756;51.982;5.648;2023-04-03T13:31:21;23.5;17.7
78463;SHT31;67756;51.982;5.648;2023-04-03T13:34:02;23.6;17.4
78463;SHT31;67756;51.982;5.648;2023-04-03T13:36:34;23.8;17.8
78463;SHT31;67756;51.982;5.648;2023-04-03T13:39:21;24.0;16.2
78463;SHT31;67756;51.982;5.648;2023-04-03T13:41:43;24.1;18.4
78463;SHT31;67756;51.982;5.648;2023-04-03T13:44:18;24.3;16.4
78463;SHT31;67756;51.982;5.648;2023-04-03T13:46:53;24.4;15.1
78463;SHT31;67756;51.982;5.648;2023-04-03T13:49:29;24.4;16.8
78463;SHT31;67756;51.982;5.648;2023-04-03T13:52:00;24.3;17.1
78463;SHT31;67756;51.982;5.648;2023-04-03T13:54:34;24.4;17.9
78463;SHT31;67756;51.982;5.648;2023-04-03T13:57:12;24.5;16.8
78463;SHT31;67756;51.982;5.648;2023-04-03T13:59:43;24.6;17.6
78463;SHT31;67756;51.982;5.648;2023-04-03T14:02:21;24.8;15.7
78463;SHT31;67756;51.982;5.648;2023-04-03T14:04:54;24.9;15.5
78463;SHT31;67756;51.982;5.648;2023-04-03T14:07:28;24.9;15.6
78463;SHT31;67756;51.982;5.648;2023-04-03T14:09:58;24.9;17.0
78463;SHT31;67756;51.982;5.648;2023-04-03T14:12:32;25.0;17.0
78463;SHT31;67756;51.982;5.648;2023-04-03T14:15:07;25.2;17.7
78463;SHT31;67756;51.982;5.648;2023-04-03T14:17:40;25.4;16.0
78463;SHT31;67756;51.982;5.648;2023-04-03T14:20:14;25.5;15.7
78463;SHT31;67756;51.982;5.648;2023-04-03T14:22:45;25.6;15.5
78463;SHT31;67756;51.982;5.648;2023-04-03T14:25:14;25.7;16.5
78463;SHT31;67756;51.982;5.648;2023-04-03T14:27:47;25.7;16.4
78463;SHT31;67756;51.982;5.648;2023-04-03T14:30:21;25.8;15.3
78463;SHT31;67756;51.982;5.648;2023-04-03T14:32:52;25.8;16.5
78463;SHT31;67756;51.982;5.648;2023-04-03T14:35:24;25.9;15.7
78463;SHT31;67756;51.982;5.648;2023-04-03T14:37:54;25.9;16.4
78463;SHT31;67756;51.982;5.648;2023-04-03T14:40:26;25.8;16.3
78463;SHT31;67756;51.982;5.648;2023-04-03T14:42:56;25.8;16.5
78463;SHT31;67756;51.982;5.648;2023-04-03T14:45:26;25.8;17.0
78463;SHT31;67756;51.982;5.648;2023-04-03T14:47:56;26.0;16.8
78463;SHT31;67756;51.982;5.648;2023-04-03T14:50:27;26.1;16.8
78463;SHT31;67756;51.982;5.648;2023-04-03T14:53:00;26.3;16.8
78463;SHT31;67756;51.982;5.648;2023-04-03T14:55:30;26.5;17.2
78463;SHT31;67756;51.982;5.648;2023-04-03T14:57:59;26.7;17.0
78463;SHT31;67756;51.982;5.648;2023-04-03T15:00:29;26.8;15.5
78463;SHT31;67756;51.982;5.648;2023-04-03T15:02:59;26.9;16.2
78463;SHT31;67756;51.982;5.648;2023-04-03T15:05:28;26.9;15.4
78463;SHT31;67756;51.982;5.648;2023-04-03T15:07:58;26.9;15.9
78463;SHT31;67756;51.982;5.648;2023-04-03T15:10:29;27.0;16.2
78463;SHT31;67756;51.982;5.648;2023-04-03T15:13:03;27.0;16.6
78463;SHT31;67756;51.982;5.648;2023-04-03T15:15:34;27.1;15.9
78463;SHT31;67756;51.982;5.648;2023-04-03T15:18:09;27.2;15.9
78463;SHT31;67756;51.982;5.648;2023-04-03T15:20:39;27.3;16.5
78463;SHT31;67756;51.982;5.648;2023-04-03T15:23:12;27.3;15.1
78463;SHT31;67756;51.982;5.648;2023-04-03T15:25:43;27.3;15.3
78463;SHT31;67756;51.982;5.648;2023-04-03T15:28:18;27.4;15.5
78463;SHT31;67756;51.982;5.648;2023-04-03T15:30:50;27.4;15.4
78463;SHT31;67756;51.982;5.648;2023-04-03T15:33:20;27.4;15.8
78463;SHT31;67756;51.982;5.648;2023-04-03T15:35:49;27.4;15.8
78463;SHT31;67756;51.982;5.648;2023-04-03T15:38:19;27.4;15.9
78463;SHT31;67756;51.982;5.648;2023-04-03T15:40:51;27.5;15.2
78463;SHT31;67756;51.982;5.648;2023-04-03T15:43:21;27.5;15.5
78463;SHT31;67756;51.982;5.648;2023-04-03T15:45:52;27.4;15.6
78463;SHT31;67756;51.982;5.648;2023-04-03T15:48:22;27.4;15.7
78463;SHT31;67756;51.982;5.648;2023-04-03T15:50:52;27.3;15.2
78463;SHT31;67756;51.982;5.648;2023-04-03T15:53:24;27.3;15.1
78463;SHT31;67756;51.982;5.648;2023-04-03T15:55:53;27.2;15.6
78463;SHT31;67756;51.982;5.648;2023-04-03T15:58:23;27.1;15.9
78463;SHT31;67756;51.982;5.648;2023-04-03T16:00:53;26.8;16.0
78463;SHT31;67756;51.982;5.648;2023-04-03T16:03:22;26.2;16.0
78463;SHT31;67756;51.982;5.648;2023-04-03T16:05:53;25.5;16.7
78463;SHT31;67756;51.982;5.648;2023-04-03T16:08:24;24.8;17.2
78463;SHT31;67756;51.982;5.648;2023-04-03T16:10:56;24.2;18.3
78463;SHT31;67756;51.982;5.648;2023-04-03T16:13:25;23.7;18.7
78463;SHT31;67756;51.982;5.648;2023-04-03T16:15:55;23.3;19.7
78463;SHT31;67756;51.982;5.648;2023-04-03T16:18:25;23.0;19.3
78463;SHT31;67756;51.982;5.648;2023-04-03T16:20:55;22.7;19.5
78463;SHT31;67756;51.982;5.648;2023-04-03T16:23:25;22.4;19.0
78463;SHT31;67756;51.982;5.648;2023-04-03T16:25:54;22.1;19.4
78463;SHT31;67756;51.982;5.648;2023-04-03T16:28:24;21.8;20.0
78463;SHT31;67756;51.982;5.648;2023-04-03T16:30:54;21.5;19.4
78463;SHT31;67756;51.982;5.648;2023-04-03T16:33:26;21.3;19.6
78463;SHT31;67756;51.982;5.648;2023-04-03T16:35:56;21.0;20.4
78463;SHT31;67756;51.982;5.648;2023-04-03T16:38:26;20.6;20.7
78463;SHT31;67756;51.982;5.648;2023-04-03T16:40:55;20.4;20.8
78463;SHT31;67756;51.982;5.648;2023-04-03T16:43:26;20.1;21.3
78463;SHT31;67756;51.982;5.648;2023-04-03T16:45:56;19.9;21.6
78463;SHT31;67756;51.982;5.648;2023-04-03T16:48:26;19.7;21.2
78463;SHT31;67756;51.982;5.648;2023-04-03T16:50:56;19.5;21.9
78463;SHT31;67756;51.982;5.648;2023-04-03T16:53:26;19.4;23.3
78463;SHT31;67756;51.982;5.648;2023-04-03T16:55:57;19.3;22.7